createdAt,value
2018-07-25T00:02:00.531Z,20.36
2018-07-25T00:04:29.280Z,20.14
2018-07-25T00:06:57.836Z,20.06
2018-07-25T00:09:26.266Z,20.12
2018-07-25T00:11:54.756Z,20.11
2018-07-25T00:14:23.256Z,20.07
2018-07-25T00:16:51.695Z,19.94
2018-07-25T00:19:20.129Z,19.96
2018-07-25T00:21:48.589Z,19.91
2018-07-25T00:24:17.076Z,20.18
2018-07-25T00:26:45.611Z,20.39
2018-07-25T00:29:14.081Z,20.28
2018-07-25T00:31:42.559Z,20.12
2018-07-25T00:34:10.984Z,19.90
2018-07-25T00:36:39.429Z,19.81
2018-07-25T00:39:09.043Z,19.68
2018-07-25T00:41:37.559Z,19.77
2018-07-25T00:44:06.005Z,19.74
2018-07-25T00:46:34.491Z,19.65
2018-07-25T00:49:03.028Z,19.55
2018-07-25T00:51:31.883Z,19.66
2018-07-25T00:54:00.334Z,19.67
2018-07-25T00:56:28.808Z,19.57
2018-07-25T00:58:57.255Z,19.72
2018-07-25T01:01:25.678Z,19.83
2018-07-25T01:03:54.157Z,19.74
2018-07-25T01:06:22.619Z,19.65
2018-07-25T01:08:51.128Z,19.58
2018-07-25T01:11:19.614Z,19.69
2018-07-25T01:13:48.056Z,19.62
2018-07-25T01:16:16.687Z,19.53
2018-07-25T01:18:45.111Z,19.59
2018-07-25T01:21:13.879Z,19.61
2018-07-25T01:23:42.309Z,19.51
2018-07-25T01:26:10.763Z,19.36
2018-07-25T01:28:40.103Z,19.35
2018-07-25T01:31:08.983Z,19.36
2018-07-25T01:33:37.464Z,19.31
2018-07-25T01:36:05.929Z,19.40
2018-07-25T01:38:35.413Z,19.38
2018-07-25T01:41:03.895Z,19.29
2018-07-25T01:43:32.391Z,19.26
2018-07-25T01:46:00.957Z,19.16
2018-07-25T01:48:29.450Z,19.20
2018-07-25T01:50:58.374Z,19.06
2018-07-25T01:53:26.786Z,18.96
2018-07-25T01:55:55.291Z,18.85
2018-07-25T01:58:23.731Z,18.74
2018-07-25T02:00:52.235Z,18.82
2018-07-25T02:03:20.713Z,18.94
2018-07-25T02:05:49.123Z,19.03
2018-07-25T02:08:17.614Z,19.12
2018-07-25T02:10:46.665Z,18.99
2018-07-25T02:13:17.062Z,19.02
2018-07-25T02:15:46.160Z,18.90
2018-07-25T02:18:14.832Z,18.81
2018-07-25T02:20:43.272Z,19.03
2018-07-25T02:23:11.736Z,19.14
2018-07-25T02:25:40.135Z,19.09
2018-07-25T02:28:08.758Z,19.06
2018-07-25T02:30:37.212Z,19.08
2018-07-25T02:33:05.679Z,18.95
2018-07-25T02:35:34.116Z,18.99
2018-07-25T02:38:02.600Z,19.01
2018-07-25T02:40:31.072Z,18.97
2018-07-25T02:42:59.551Z,18.74
2018-07-25T02:45:32.172Z,18.63
2018-07-25T02:48:00.634Z,18.64
2018-07-25T02:50:29.128Z,18.73
2018-07-25T02:52:57.593Z,18.69
2018-07-25T02:55:26.077Z,21.10
2018-07-25T02:57:54.532Z,21.94
2018-07-25T03:00:23.013Z,20.36
2018-07-25T03:02:51.528Z,21.17
2018-07-25T03:05:20.212Z,21.23
2018-07-25T03:07:48.679Z,21.62
2018-07-25T03:10:17.164Z,20.99
2018-07-25T03:12:46.652Z,19.95
2018-07-25T03:15:15.111Z,21.11
2018-07-25T03:17:43.573Z,21.49
2018-07-25T03:20:12.025Z,21.37
2018-07-25T03:22:40.661Z,21.75
2018-07-25T03:25:09.111Z,20.90
2018-07-25T03:27:37.535Z,19.80
2018-07-25T03:30:06.747Z,19.25
2018-07-25T03:32:35.129Z,20.57
2018-07-25T03:35:03.850Z,21.25
2018-07-25T03:37:32.373Z,21.06
2018-07-25T03:40:00.778Z,20.52
2018-07-25T03:42:29.310Z,19.41
2018-07-25T03:44:57.723Z,20.14
2018-07-25T03:47:26.221Z,21.26
2018-07-25T03:49:54.643Z,19.85
2018-07-25T03:52:23.090Z,19.55
2018-07-25T03:54:52.472Z,19.23
2018-07-25T03:57:20.933Z,19.39
2018-07-25T03:59:49.507Z,19.18
2018-07-25T04:02:17.936Z,19.31
2018-07-25T04:04:46.397Z,19.38
2018-07-25T04:07:14.900Z,19.37
2018-07-25T04:09:43.568Z,19.50
2018-07-25T04:12:12.051Z,19.47
2018-07-25T04:14:40.480Z,19.67
2018-07-25T04:17:09.138Z,19.72
2018-07-25T04:19:37.739Z,19.59
2018-07-25T04:22:06.271Z,19.84
2018-07-25T04:24:34.758Z,19.73
2018-07-25T04:27:03.224Z,19.66
2018-07-25T04:29:31.678Z,19.89
2018-07-25T04:32:00.303Z,20.03
2018-07-25T04:34:28.782Z,19.89
2018-07-25T04:36:57.556Z,20.03
2018-07-25T04:39:26.068Z,20.03
2018-07-25T04:41:54.499Z,20.18
2018-07-25T04:44:22.938Z,20.24
2018-07-25T04:46:51.446Z,20.18
2018-07-25T04:49:19.903Z,20.25
2018-07-25T04:51:48.481Z,20.26
2018-07-25T04:54:16.978Z,20.44
2018-07-25T04:56:45.684Z,20.58
2018-07-25T04:59:14.540Z,20.49
2018-07-25T05:01:42.976Z,20.46
2018-07-25T05:04:11.507Z,20.70
2018-07-25T05:06:39.930Z,20.95
2018-07-25T05:09:10.532Z,21.12
2018-07-25T05:11:39.343Z,21.02
2018-07-25T05:14:08.408Z,21.01
2018-07-25T05:16:37.277Z,21.22
2018-07-25T05:19:06.068Z,21.20
2018-07-25T05:21:34.554Z,21.11
2018-07-25T05:24:03.902Z,21.02
2018-07-25T05:26:32.367Z,21.09
2018-07-25T05:29:00.810Z,21.19
2018-07-25T05:31:29.294Z,21.18
2018-07-25T05:33:57.962Z,21.26
2018-07-25T05:36:26.929Z,21.26
2018-07-25T05:38:55.390Z,21.28
2018-07-25T05:41:23.848Z,21.28
2018-07-25T05:43:52.306Z,21.22
2018-07-25T05:46:21.236Z,21.34
2018-07-25T05:48:49.939Z,21.58
2018-07-25T05:51:18.418Z,21.72
2018-07-25T05:53:47.065Z,21.68
2018-07-25T05:56:15.505Z,21.73
2018-07-25T05:58:44.031Z,22.11
2018-07-25T06:01:14.812Z,22.22
2018-07-25T06:03:43.351Z,22.22
2018-07-25T06:06:11.846Z,22.34
2018-07-25T06:08:40.342Z,22.46
2018-07-25T06:11:08.982Z,22.33
2018-07-25T06:13:38.040Z,22.35
2018-07-25T06:16:06.935Z,22.61
2018-07-25T06:18:35.807Z,22.77
2018-07-25T06:21:04.202Z,22.90
2018-07-25T06:23:32.683Z,23.01
2018-07-25T06:26:01.326Z,23.19
2018-07-25T06:28:29.740Z,23.25
2018-07-25T06:30:58.333Z,23.36
2018-07-25T06:33:27.559Z,23.28
2018-07-25T06:35:56.225Z,23.68
2018-07-25T06:38:25.058Z,23.84
2018-07-25T06:40:53.568Z,24.04
2018-07-25T06:43:22.030Z,23.92
2018-07-25T06:45:50.391Z,23.84
2018-07-25T06:48:19.060Z,24.16
2018-07-25T06:50:47.562Z,23.92
2018-07-25T06:53:16.017Z,23.96
2018-07-25T06:55:44.599Z,23.92
2018-07-25T06:58:13.243Z,24.03
2018-07-25T07:00:42.203Z,23.93
2018-07-25T07:03:10.675Z,23.83
2018-07-25T07:05:39.105Z,24.01
2018-07-25T07:08:07.569Z,24.35
2018-07-25T07:10:36.064Z,24.47
2018-07-25T07:13:04.659Z,24.40
2018-07-25T07:15:33.168Z,24.55
2018-07-25T07:18:01.627Z,24.58
2018-07-25T07:20:30.240Z,24.64
2018-07-25T07:22:58.721Z,24.79
2018-07-25T07:25:27.129Z,24.53
2018-07-25T07:27:55.559Z,24.63
2018-07-25T07:30:24.945Z,24.74
2018-07-25T07:32:53.681Z,24.72
2018-07-25T07:35:22.140Z,24.92
2018-07-25T07:37:50.658Z,25.11
2018-07-25T07:40:19.359Z,25.03
2018-07-25T07:42:47.828Z,25.21
2018-07-25T07:45:16.465Z,25.09
2018-07-25T07:47:44.995Z,25.43
2018-07-25T07:50:13.419Z,25.69
2018-07-25T07:52:41.910Z,25.34
2018-07-25T07:55:10.360Z,25.59
2018-07-25T07:57:38.804Z,25.88
2018-07-25T08:00:08.172Z,26.01
2018-07-25T08:02:37.275Z,25.51
2018-07-25T08:05:05.947Z,26.16
2018-07-25T08:07:34.355Z,26.20
2018-07-25T08:10:03.191Z,26.12
2018-07-25T08:12:32.003Z,25.99
2018-07-25T08:15:31.139Z,26.07
2018-07-25T08:18:00.417Z,26.19
2018-07-25T08:20:29.315Z,26.18
2018-07-25T08:22:57.764Z,26.45
2018-07-25T08:25:26.167Z,26.72
2018-07-25T08:27:54.595Z,26.79
2018-07-25T08:30:23.075Z,26.15
2018-07-25T08:32:51.532Z,26.72
2018-07-25T08:35:20.188Z,27.06
2018-07-25T08:37:48.779Z,27.41
2018-07-25T08:40:17.282Z,27.21
2018-07-25T08:42:45.732Z,27.16
2018-07-25T08:45:14.207Z,27.23
2018-07-25T08:47:42.679Z,27.32
2018-07-25T08:50:11.114Z,27.47
2018-07-25T08:52:39.961Z,27.12
2018-07-25T08:55:08.714Z,27.37
2018-07-25T08:57:37.110Z,27.95
2018-07-25T09:00:06.289Z,28.13
2018-07-25T09:02:34.726Z,27.93
2018-07-25T09:05:03.249Z,27.33
2018-07-25T09:07:31.850Z,28.18
2018-07-25T09:10:00.259Z,28.51
2018-07-25T09:12:28.919Z,27.74
2018-07-25T09:14:57.330Z,28.03
2018-07-25T09:17:25.911Z,28.64
2018-07-25T09:19:54.333Z,28.86
2018-07-25T09:22:22.799Z,28.95
2018-07-25T09:24:51.446Z,29.17
2018-07-25T09:27:19.867Z,29.20
2018-07-25T09:29:48.347Z,29.19
2018-07-25T09:32:16.792Z,28.58
2018-07-25T09:34:45.295Z,28.03
2018-07-25T09:37:13.924Z,28.68
2018-07-25T09:39:42.791Z,29.06
2018-07-25T09:42:11.255Z,29.26
2018-07-25T09:44:40.398Z,29.37
2018-07-25T09:47:09.017Z,29.33
2018-07-25T09:49:37.356Z,29.43
2018-07-25T09:52:05.823Z,29.71
2018-07-25T09:54:35.348Z,29.93
2018-07-25T09:57:04.357Z,30.34
2018-07-25T09:59:32.830Z,30.37
2018-07-25T10:02:01.299Z,29.87
2018-07-25T10:04:29.844Z,29.82
2018-07-25T10:06:58.543Z,29.34
2018-07-25T10:09:26.983Z,29.94
2018-07-25T10:11:55.447Z,31.03
2018-07-25T10:14:23.974Z,31.21
2018-07-25T10:16:52.606Z,31.49
2018-07-25T10:19:21.491Z,30.82
2018-07-25T10:21:50.008Z,31.32
2018-07-25T10:24:18.485Z,30.34
2018-07-25T10:26:46.954Z,30.59
2018-07-25T10:29:15.409Z,30.28
2018-07-25T10:31:44.218Z,30.04
2018-07-25T10:34:13.097Z,29.92
2018-07-25T10:36:41.586Z,30.08
2018-07-25T10:39:10.579Z,30.27
2018-07-25T10:41:39.159Z,30.78
2018-07-25T10:44:07.661Z,30.80
2018-07-25T10:46:36.152Z,31.07
2018-07-25T10:49:05.268Z,31.52
2018-07-25T10:51:33.767Z,31.73
2018-07-25T10:54:02.240Z,31.16
2018-07-25T10:56:30.710Z,31.35
2018-07-25T10:58:59.155Z,31.66
2018-07-25T11:01:27.726Z,31.83
2018-07-25T11:03:56.207Z,30.75
2018-07-25T11:06:25.126Z,30.61
2018-07-25T11:08:53.616Z,30.78
2018-07-25T11:11:22.066Z,32.46
2018-07-25T11:13:50.687Z,31.83
2018-07-25T11:16:19.145Z,31.63
2018-07-25T11:18:47.884Z,31.18
2018-07-25T11:21:16.291Z,32.26
2018-07-25T11:23:44.739Z,31.78
2018-07-25T11:26:13.195Z,32.13
2018-07-25T11:28:41.872Z,32.55
2018-07-25T11:31:10.323Z,32.32
2018-07-25T11:33:38.722Z,31.62
2018-07-25T11:36:07.271Z,32.89
2018-07-25T11:38:35.718Z,33.37
2018-07-25T11:41:04.198Z,33.71
2018-07-25T11:43:32.655Z,33.89
2018-07-25T11:46:01.091Z,31.83
2018-07-25T11:48:29.545Z,32.38
2018-07-25T11:50:58.227Z,32.74
2018-07-25T11:53:27.047Z,33.72
2018-07-25T11:55:55.530Z,34.21
2018-07-25T11:58:24.235Z,34.09
2018-07-25T12:00:52.660Z,34.29
2018-07-25T12:03:21.102Z,33.39
2018-07-25T12:05:49.547Z,36.85
2018-07-25T12:08:17.967Z,36.15
2018-07-25T12:10:46.375Z,34.17
2018-07-25T12:13:14.830Z,34.50
2018-07-25T12:15:43.277Z,32.74
2018-07-25T12:18:11.728Z,33.34
2018-07-25T12:20:40.131Z,32.25
2018-07-25T12:23:08.588Z,31.86
2018-07-25T12:25:37.066Z,32.38
2018-07-25T12:28:05.777Z,32.04
2018-07-25T12:30:48.820Z,33.53
2018-07-25T12:33:17.547Z,33.89
2018-07-25T12:35:46.005Z,35.14
2018-07-25T12:38:14.483Z,34.34
2018-07-25T12:40:43.038Z,34.91
2018-07-25T12:43:11.784Z,35.91
2018-07-25T12:45:40.444Z,35.70
2018-07-25T12:48:09.746Z,35.71
2018-07-25T12:50:38.436Z,34.65
2018-07-25T12:53:07.245Z,36.86
2018-07-25T12:55:35.679Z,37.53
2018-07-25T12:58:04.162Z,38.72
2018-07-25T13:00:33.167Z,38.89
2018-07-25T13:03:01.599Z,38.42
2018-07-25T13:05:30.036Z,38.53
2018-07-25T13:07:59.275Z,38.49
2018-07-25T13:10:27.727Z,39.23
2018-07-25T13:12:56.208Z,38.94
2018-07-25T13:15:25.017Z,37.15
2018-07-25T13:17:53.707Z,35.89
2018-07-25T13:20:22.399Z,35.26
2018-07-25T13:22:51.098Z,36.21
2018-07-25T13:25:20.172Z,36.99
2018-07-25T13:30:32.059Z,37.59
2018-07-25T13:33:00.827Z,37.15
2018-07-25T13:35:29.695Z,35.83
2018-07-25T13:37:58.161Z,36.02
2018-07-25T13:40:26.968Z,36.31
2018-07-25T13:42:55.660Z,35.93
2018-07-25T13:45:24.130Z,34.24
2018-07-25T13:47:52.739Z,33.67
2018-07-25T13:50:21.372Z,33.51
2018-07-25T13:52:50.305Z,32.28
2018-07-25T13:55:18.757Z,32.30
2018-07-25T13:57:47.208Z,32.62
2018-07-25T14:00:15.644Z,33.26
2018-07-25T14:02:44.088Z,32.87
2018-07-25T14:05:12.680Z,32.83
2018-07-25T14:07:41.109Z,33.22
2018-07-25T14:10:09.569Z,33.64
2018-07-25T14:12:38.079Z,33.79
2018-07-25T14:15:07.584Z,33.96
2018-07-25T14:17:36.083Z,33.47
2018-07-25T14:20:04.671Z,32.90
2018-07-25T14:22:33.095Z,33.58
2018-07-25T14:25:01.576Z,34.96
2018-07-25T14:27:30.191Z,34.10
2018-07-25T14:29:58.880Z,35.60
2018-07-25T14:32:27.754Z,36.35
2018-07-25T14:34:56.238Z,35.18
2018-07-25T14:37:24.724Z,36.86
2018-07-25T14:39:53.249Z,37.17
2018-07-25T14:42:21.737Z,36.01
2018-07-25T14:44:50.179Z,36.64
2018-07-25T14:47:18.889Z,37.45
2018-07-25T14:49:47.279Z,36.47
2018-07-25T14:52:15.861Z,34.25
2018-07-25T14:54:45.076Z,35.49
2018-07-25T14:57:13.664Z,36.16
2018-07-25T14:59:42.275Z,37.22
2018-07-25T15:02:10.736Z,35.86
2018-07-25T15:04:39.299Z,36.13
2018-07-25T15:07:07.787Z,35.28
2018-07-25T15:09:36.294Z,36.76
2018-07-25T15:12:04.966Z,35.74
2018-07-25T15:14:33.621Z,37.36
2018-07-25T15:17:02.169Z,37.62
2018-07-25T15:19:30.812Z,38.28
2018-07-25T15:21:59.311Z,37.93
2018-07-25T15:24:27.786Z,38.29
2018-07-25T15:26:56.610Z,36.12
2018-07-25T15:29:25.123Z,37.31
2018-07-25T15:31:53.498Z,36.84
2018-07-25T15:34:22.127Z,35.15
2018-07-25T15:36:52.152Z,33.92
2018-07-25T15:39:25.645Z,32.76
2018-07-25T15:41:55.947Z,31.96
2018-07-25T15:44:25.869Z,30.77
2018-07-25T15:46:54.353Z,28.27
2018-07-25T15:49:23.100Z,27.99
2018-07-25T15:51:51.630Z,26.15
2018-07-25T15:54:20.163Z,24.24
2018-07-25T15:56:48.642Z,24.77
2018-07-25T15:59:17.645Z,23.32
2018-07-25T16:01:46.300Z,23.60
2018-07-25T16:04:14.748Z,23.96
2018-07-25T16:06:43.299Z,24.39
2018-07-25T16:09:12.989Z,23.98
2018-07-25T16:11:42.163Z,24.19
2018-07-25T16:14:10.624Z,24.45
2018-07-25T16:16:39.044Z,24.53
2018-07-25T16:19:07.522Z,24.64
2018-07-25T16:21:36.018Z,24.44
2018-07-25T16:24:04.759Z,24.51
2018-07-25T16:26:33.187Z,24.54
2018-07-25T16:29:02.961Z,24.40
2018-07-25T16:31:31.452Z,24.79
2018-07-25T16:33:59.950Z,24.46
2018-07-25T16:36:28.440Z,24.29
2018-07-25T16:38:56.911Z,24.32
2018-07-25T16:41:26.274Z,24.35
2018-07-25T16:43:54.674Z,24.51
2018-07-25T16:46:23.633Z,24.69
2018-07-25T16:48:52.214Z,24.55
2018-07-25T16:51:20.675Z,25.32
2018-07-25T16:53:49.270Z,27.03
2018-07-25T16:56:17.706Z,29.19
2018-07-25T16:58:46.179Z,29.46
2018-07-25T17:01:14.630Z,30.70
2018-07-25T17:03:43.764Z,28.83
2018-07-25T17:06:12.215Z,30.74
2018-07-25T17:08:40.996Z,31.11
2018-07-25T17:11:09.470Z,31.34
2018-07-25T17:13:38.336Z,31.10
2018-07-25T17:16:06.897Z,32.34
2018-07-25T17:18:35.401Z,32.86
2018-07-25T17:21:04.116Z,32.22
2018-07-25T17:23:32.660Z,32.16
2018-07-25T17:26:01.583Z,30.94
2018-07-25T17:28:30.076Z,31.19
2018-07-25T17:30:58.702Z,31.79
2018-07-25T17:33:27.201Z,31.79
2018-07-25T17:35:55.658Z,32.35
2018-07-25T17:38:24.227Z,31.29
2018-07-25T17:40:52.699Z,31.58
2018-07-25T17:43:21.171Z,30.06
2018-07-25T17:45:49.655Z,29.89
2018-07-25T17:48:32.560Z,29.72
2018-07-25T17:51:01.032Z,29.17
2018-07-25T17:53:29.499Z,28.96
2018-07-25T17:55:58.622Z,28.22
2018-07-25T17:58:27.180Z,29.61
2018-07-25T18:00:55.886Z,29.57
2018-07-25T18:03:24.647Z,29.58
2018-07-25T18:05:53.257Z,29.63
2018-07-25T18:08:21.883Z,29.67
2018-07-25T18:10:52.045Z,29.43
2018-07-25T18:13:25.607Z,28.56
2018-07-25T18:15:54.165Z,27.69
2018-07-25T18:18:22.865Z,27.05
2018-07-25T18:20:51.381Z,26.57
2018-07-25T18:23:19.886Z,26.31
2018-07-25T18:25:48.407Z,26.19
2018-07-25T18:28:17.990Z,25.49
2018-07-25T18:30:46.437Z,25.53
2018-07-25T18:33:14.951Z,25.21
2018-07-25T18:35:43.439Z,24.96
2018-07-25T18:38:12.003Z,24.78
2018-07-25T18:40:41.229Z,24.57
2018-07-25T18:43:09.691Z,24.52
2018-07-25T18:45:38.467Z,24.74
2018-07-25T18:48:07.021Z,24.30
2018-07-25T18:50:35.510Z,24.63
2018-07-25T18:53:04.110Z,24.40
2018-07-25T18:55:32.578Z,23.54
2018-07-25T18:58:01.037Z,24.34
2018-07-25T19:00:29.739Z,24.60
2018-07-25T19:02:58.219Z,24.47
2018-07-25T19:05:30.932Z,24.54
2018-07-25T19:08:00.599Z,24.54
2018-07-25T19:10:29.209Z,24.46
2018-07-25T19:12:57.670Z,24.10
2018-07-25T19:15:33.396Z,23.71
2018-07-25T19:18:02.385Z,22.87
2018-07-25T19:20:30.823Z,22.75
2018-07-25T19:22:59.269Z,22.61
2018-07-25T19:25:27.720Z,22.46
2018-07-25T19:27:56.122Z,22.32
2018-07-25T19:30:24.588Z,22.01
2018-07-25T19:32:53.046Z,21.98
2018-07-25T19:35:21.708Z,21.73
2018-07-25T19:40:17.556Z,21.83
2018-07-25T19:42:45.991Z,22.21
2018-07-25T19:45:14.442Z,22.20
2018-07-25T19:47:42.927Z,22.33
2018-07-25T19:50:11.429Z,21.88
2018-07-25T19:52:40.522Z,21.51
2018-07-25T19:55:09.000Z,21.87
2018-07-25T19:57:37.464Z,21.68
2018-07-25T20:00:06.347Z,21.37
2018-07-25T20:02:34.779Z,21.50
2018-07-25T20:05:03.398Z,21.42
2018-07-25T20:07:32.025Z,21.42
2018-07-25T20:10:00.503Z,21.42
2018-07-25T20:12:28.972Z,21.48
2018-07-25T20:15:03.110Z,21.51
2018-07-25T20:17:31.620Z,21.44
2018-07-25T20:20:00.077Z,21.76
2018-07-25T20:22:28.608Z,21.59
2018-07-25T20:24:57.059Z,21.61
2018-07-25T20:27:25.514Z,21.65
2018-07-25T20:29:53.975Z,21.84
2018-07-25T20:32:22.448Z,21.32
2018-07-25T20:34:50.977Z,21.10
2018-07-25T20:37:19.555Z,20.97
2018-07-25T20:39:47.975Z,21.22
2018-07-25T20:42:16.608Z,21.25
2018-07-25T20:44:44.997Z,21.35
2018-07-25T20:47:13.704Z,21.41
2018-07-25T20:49:42.131Z,21.48
2018-07-25T20:52:10.545Z,21.40
2018-07-25T20:54:39.095Z,21.55
2018-07-25T20:57:08.131Z,21.46
2018-07-25T20:59:36.604Z,21.37
2018-07-25T21:02:05.043Z,21.26
2018-07-25T21:04:33.476Z,21.12
2018-07-25T21:07:01.993Z,21.25
2018-07-25T21:09:30.519Z,21.17
2018-07-25T21:11:58.993Z,21.16
2018-07-25T21:14:27.427Z,21.12
2018-07-25T21:16:56.031Z,21.01
2018-07-25T21:19:24.499Z,21.05
2018-07-25T21:21:52.959Z,21.07
2018-07-25T21:24:21.418Z,21.03
2018-07-25T21:26:50.175Z,20.77
2018-07-25T21:29:18.657Z,20.71
2018-07-25T21:31:47.098Z,20.65
2018-07-25T21:34:15.590Z,20.54
2018-07-25T21:36:44.055Z,20.54
2018-07-25T21:39:13.654Z,20.73
2018-07-25T21:41:42.529Z,20.54
2018-07-25T21:44:11.260Z,20.63
2018-07-25T21:46:39.745Z,20.70
2018-07-25T21:49:08.524Z,20.26
2018-07-25T21:51:36.955Z,20.48
2018-07-25T21:54:05.876Z,20.41
2018-07-25T21:56:34.317Z,20.40
2018-07-25T21:59:02.933Z,20.50
2018-07-25T22:01:31.397Z,20.45
2018-07-25T22:03:59.831Z,20.45
2018-07-25T22:06:28.407Z,20.49
2018-07-25T22:08:56.844Z,20.48
2018-07-25T22:11:25.331Z,20.47
2018-07-25T22:13:56.830Z,20.47
2018-07-25T22:16:26.591Z,20.37
2018-07-25T22:18:55.492Z,20.64
2018-07-25T22:21:23.967Z,20.70
2018-07-25T22:23:52.495Z,20.67
2018-07-25T22:26:20.990Z,20.64
2018-07-25T22:28:49.651Z,20.74
2018-07-25T22:31:18.165Z,20.73
2018-07-25T22:33:46.662Z,20.69
2018-07-25T22:36:15.133Z,20.84
2018-07-25T22:38:43.560Z,20.88
2018-07-25T22:41:12.008Z,20.87
2018-07-25T22:43:40.444Z,20.84
2018-07-25T22:46:08.900Z,20.79
2018-07-25T22:48:37.396Z,20.81
2018-07-25T22:51:06.317Z,20.92
2018-07-25T22:53:34.785Z,20.87
2018-07-25T22:56:03.456Z,20.71
2018-07-25T22:58:32.066Z,20.60
2018-07-25T23:01:00.550Z,20.79
2018-07-25T23:03:29.024Z,20.71
2018-07-25T23:05:57.676Z,20.76
2018-07-25T23:08:26.148Z,20.56
2018-07-25T23:10:54.773Z,20.56
2018-07-25T23:13:23.323Z,20.54
2018-07-25T23:15:52.319Z,20.48
2018-07-25T23:18:20.731Z,20.19
2018-07-25T23:20:49.204Z,20.14
2018-07-25T23:23:17.629Z,20.09
2018-07-25T23:25:46.083Z,20.31
2018-07-25T23:28:14.770Z,20.33
2018-07-25T23:30:43.204Z,20.31
2018-07-25T23:33:11.671Z,20.16
2018-07-25T23:35:40.187Z,20.20
2018-07-25T23:38:08.763Z,20.23
2018-07-25T23:40:37.205Z,20.10
2018-07-25T23:43:05.627Z,20.09
2018-07-25T23:45:34.099Z,20.22
2018-07-25T23:48:02.511Z,20.24
2018-07-25T23:50:30.992Z,20.21
2018-07-25T23:52:59.516Z,20.13
2018-07-25T23:55:27.954Z,20.21
2018-07-25T23:57:56.604Z,20.15
